sensor_id;sensor_type;location;lat;lon;timestamp;temperature;humidity
15997;DHT22;8103;51.340;12.326;2022-08-19T00:00:07;21.10;99.90
15997;DHT22;8103;51.340;12.326;2022-08-19T00:02:36;21.10;99.90
15997;DHT22;8103;51.340;12.326;2022-08-19T00:05:04;21.20;99.90
15997;DHT22;8103;51.340;12.326;2022-08-19T00:07:30;21.20;99.90
15997;DHT22;8103;51.340;12.326;2022-08-19T00:10:00;21.20;99.90
15997;DHT22;8103;51.340;12.326;2022-08-19T00:12:27;21.20;99.90
15997;DHT22;8103;51.340;12.326;2022-08-19T00:14:54;21.20;99.90
15997;DHT22;8103;51.340;12.326;2022-08-19T00:17:22;21.20;99.90
15997;DHT22;8103;51.340;12.326;2022-08-19T00:19:48;21.20;99.90
15997;DHT22;8103;51.340;12.326;2022-08-19T00:22:15;21.10;99.90
15997;DHT22;8103;51.340;12.326;2022-08-19T00:24:45;21.10;99.90
15997;DHT22;8103;51.340;12.326;2022-08-19T00:27:15;21.10;99.90
15997;DHT22;8103;51.340;12.326;2022-08-19T00:29:52;21.00;99.90
15997;DHT22;8103;51.340;12.326;2022-08-19T00:32:18;21.10;99.90
15997;DHT22;8103;51.340;12.326;2022-08-19T00:34:45;21.00;99.90
15997;DHT22;8103;51.340;12.326;2022-08-19T00:37:12;21.00;99.90
15997;DHT22;8103;51.340;12.326;2022-08-19T00:39:39;21.00;99.90
15997;DHT22;8103;51.340;12.326;2022-08-19T00:42:06;21.00;99.90
15997;DHT22;8103;51.340;12.326;2022-08-19T00:44:33;21.00;99.90
15997;DHT22;8103;51.340;12.326;2022-08-19T00:46:59;21.00;99.90
15997;DHT22;8103;51.340;12.326;2022-08-19T00:49:36;21.00;99.90
15997;DHT22;8103;51.340;12.326;2022-08-19T00:52:09;20.90;99.90
15997;DHT22;8103;51.340;12.326;2022-08-19T00:54:39;20.90;99.90
15997;DHT22;8103;51.340;12.326;2022-08-19T00:57:11;20.90;99.90
15997;DHT22;8103;51.340;12.326;2022-08-19T00:59:41;21.00;99.90
15997;DHT22;8103;51.340;12.326;2022-08-19T01:02:19;21.00;99.90
15997;DHT22;8103;51.340;12.326;2022-08-19T01:04:46;21.00;99.90
15997;DHT22;8103;51.340;12.326;2022-08-19T01:07:13;20.90;99.90
15997;DHT22;8103;51.340;12.326;2022-08-19T01:09:40;20.90;99.90
15997;DHT22;8103;51.340;12.326;2022-08-19T01:12:08;20.90;99.90
15997;DHT22;8103;51.340;12.326;2022-08-19T01:14:36;20.90;99.90
15997;DHT22;8103;51.340;12.326;2022-08-19T01:17:07;20.90;99.90
15997;DHT22;8103;51.340;12.326;2022-08-19T01:19:37;20.90;99.90
15997;DHT22;8103;51.340;12.326;2022-08-19T01:24:52;20.90;99.90
15997;DHT22;8103;51.340;12.326;2022-08-19T01:27:19;20.90;99.90
15997;DHT22;8103;51.340;12.326;2022-08-19T01:29:45;20.90;99.90
15997;DHT22;8103;51.340;12.326;2022-08-19T01:32:15;20.90;99.90
15997;DHT22;8103;51.340;12.326;2022-08-19T01:34:46;21.00;99.90
15997;DHT22;8103;51.340;12.326;2022-08-19T01:37:14;21.00;99.90
15997;DHT22;8103;51.340;12.326;2022-08-19T01:39:41;21.00;99.90
15997;DHT22;8103;51.340;12.326;2022-08-19T01:42:09;21.00;99.90
15997;DHT22;8103;51.340;12.326;2022-08-19T01:44:39;21.00;99.90
15997;DHT22;8103;51.340;12.326;2022-08-19T01:47:08;21.00;99.90
15997;DHT22;8103;51.340;12.326;2022-08-19T01:49:36;21.00;99.90
15997;DHT22;8103;51.340;12.326;2022-08-19T01:52:04;21.00;99.90
15997;DHT22;8103;51.340;12.326;2022-08-19T01:54:31;21.00;99.90
15997;DHT22;8103;51.340;12.326;2022-08-19T01:57:02;21.00;99.90
15997;DHT22;8103;51.340;12.326;2022-08-19T01:59:30;21.00;99.90
15997;DHT22;8103;51.340;12.326;2022-08-19T02:01:58;21.00;99.90
15997;DHT22;8103;51.340;12.326;2022-08-19T02:04:24;21.00;99.90
15997;DHT22;8103;51.340;12.326;2022-08-19T02:06:53;21.00;99.90
15997;DHT22;8103;51.340;12.326;2022-08-19T02:09:20;21.10;99.90
15997;DHT22;8103;51.340;12.326;2022-08-19T02:11:47;21.00;99.90
15997;DHT22;8103;51.340;12.326;2022-08-19T02:14:13;21.00;99.90
15997;DHT22;8103;51.340;12.326;2022-08-19T02:16:40;21.00;99.90
15997;DHT22;8103;51.340;12.326;2022-08-19T02:19:07;20.90;99.90
15997;DHT22;8103;51.340;12.326;2022-08-19T02:21:34;21.00;99.90
15997;DHT22;8103;51.340;12.326;2022-08-19T02:24:01;20.90;99.90
15997;DHT22;8103;51.340;12.326;2022-08-19T02:26:28;20.90;99.90
15997;DHT22;8103;51.340;12.326;2022-08-19T02:28:55;20.90;99.90
15997;DHT22;8103;51.340;12.326;2022-08-19T02:31:24;20.90;99.90
15997;DHT22;8103;51.340;12.326;2022-08-19T02:33:52;20.90;99.90
15997;DHT22;8103;51.340;12.326;2022-08-19T02:36:22;21.00;99.90
15997;DHT22;8103;51.340;12.326;2022-08-19T02:38:49;21.00;99.90
15997;DHT22;8103;51.340;12.326;2022-08-19T02:41:23;21.00;99.90
15997;DHT22;8103;51.340;12.326;2022-08-19T02:43:52;21.10;99.90
15997;DHT22;8103;51.340;12.326;2022-08-19T02:46:39;21.10;99.90
15997;DHT22;8103;51.340;12.326;2022-08-19T02:49:07;21.10;99.90
15997;DHT22;8103;51.340;12.326;2022-08-19T02:51:40;21.10;99.90
15997;DHT22;8103;51.340;12.326;2022-08-19T02:54:08;21.10;99.90
15997;DHT22;8103;51.340;12.326;2022-08-19T02:56:37;21.10;99.90
15997;DHT22;8103;51.340;12.326;2022-08-19T02:59:04;21.10;99.90
15997;DHT22;8103;51.340;12.326;2022-08-19T03:01:39;21.10;99.90
15997;DHT22;8103;51.340;12.326;2022-08-19T03:04:08;21.10;99.90
15997;DHT22;8103;51.340;12.326;2022-08-19T03:06:40;21.10;99.90
15997;DHT22;8103;51.340;12.326;2022-08-19T03:09:08;21.10;99.90
15997;DHT22;8103;51.340;12.326;2022-08-19T03:11:36;21.10;99.90
15997;DHT22;8103;51.340;12.326;2022-08-19T03:14:04;21.10;99.90
15997;DHT22;8103;51.340;12.326;2022-08-19T03:16:33;21.10;99.90
15997;DHT22;8103;51.340;12.326;2022-08-19T03:19:01;21.20;99.90
15997;DHT22;8103;51.340;12.326;2022-08-19T03:21:31;21.10;99.90
15997;DHT22;8103;51.340;12.326;2022-08-19T03:24:03;21.20;99.90
15997;DHT22;8103;51.340;12.326;2022-08-19T03:26:30;21.20;99.90
15997;DHT22;8103;51.340;12.326;2022-08-19T03:28:57;21.20;99.90
15997;DHT22;8103;51.340;12.326;2022-08-19T03:31:27;21.20;99.90
15997;DHT22;8103;51.340;12.326;2022-08-19T03:34:09;21.10;99.90
15997;DHT22;8103;51.340;12.326;2022-08-19T03:36:38;21.10;99.90
15997;DHT22;8103;51.340;12.326;2022-08-19T03:39:04;21.10;99.90
15997;DHT22;8103;51.340;12.326;2022-08-19T03:41:41;21.00;99.90
15997;DHT22;8103;51.340;12.326;2022-08-19T03:44:18;21.00;99.90
15997;DHT22;8103;51.340;12.326;2022-08-19T03:46:50;21.00;99.90
15997;DHT22;8103;51.340;12.326;2022-08-19T03:49:18;21.00;99.90
15997;DHT22;8103;51.340;12.326;2022-08-19T03:51:47;21.00;99.90
15997;DHT22;8103;51.340;12.326;2022-08-19T03:54:17;21.00;99.90
15997;DHT22;8103;51.340;12.326;2022-08-19T03:56:46;21.00;99.90
15997;DHT22;8103;51.340;12.326;2022-08-19T03:59:16;21.00;99.90
15997;DHT22;8103;51.340;12.326;2022-08-19T04:01:44;21.00;99.90
15997;DHT22;8103;51.340;12.326;2022-08-19T04:04:11;20.90;99.90
15997;DHT22;8103;51.340;12.326;2022-08-19T04:06:38;20.90;99.90
15997;DHT22;8103;51.340;12.326;2022-08-19T04:09:08;20.90;99.90
15997;DHT22;8103;51.340;12.326;2022-08-19T04:11:41;20.90;99.90
15997;DHT22;8103;51.340;12.326;2022-08-19T04:14:13;20.90;99.90
15997;DHT22;8103;51.340;12.326;2022-08-19T04:16:41;20.90;99.90
15997;DHT22;8103;51.340;12.326;2022-08-19T04:19:11;20.90;99.90
15997;DHT22;8103;51.340;12.326;2022-08-19T04:21:38;20.90;99.90
15997;DHT22;8103;51.340;12.326;2022-08-19T04:24:06;20.80;99.90
15997;DHT22;8103;51.340;12.326;2022-08-19T04:26:35;20.90;99.90
15997;DHT22;8103;51.340;12.326;2022-08-19T04:29:06;20.80;99.90
15997;DHT22;8103;51.340;12.326;2022-08-19T04:31:37;20.80;99.90
15997;DHT22;8103;51.340;12.326;2022-08-19T04:34:07;20.80;99.90
15997;DHT22;8103;51.340;12.326;2022-08-19T04:36:36;20.80;99.90
15997;DHT22;8103;51.340;12.326;2022-08-19T04:39:14;20.80;99.90
15997;DHT22;8103;51.340;12.326;2022-08-19T04:41:41;21.00;99.90
15997;DHT22;8103;51.340;12.326;2022-08-19T04:44:27;20.90;99.90
15997;DHT22;8103;51.340;12.326;2022-08-19T04:46:57;20.90;99.90
15997;DHT22;8103;51.340;12.326;2022-08-19T04:49:24;20.90;99.90
15997;DHT22;8103;51.340;12.326;2022-08-19T04:51:53;20.90;99.90
15997;DHT22;8103;51.340;12.326;2022-08-19T04:54:22;21.00;99.90
15997;DHT22;8103;51.340;12.326;2022-08-19T04:57:03;21.00;99.90
15997;DHT22;8103;51.340;12.326;2022-08-19T04:59:32;21.00;99.90
15997;DHT22;8103;51.340;12.326;2022-08-19T05:02:00;21.00;99.90
15997;DHT22;8103;51.340;12.326;2022-08-19T05:04:26;21.00;99.90
15997;DHT22;8103;51.340;12.326;2022-08-19T05:06:55;21.00;99.90
15997;DHT22;8103;51.340;12.326;2022-08-19T05:09:22;21.00;99.90
15997;DHT22;8103;51.340;12.326;2022-08-19T05:11:49;21.00;99.90
15997;DHT22;8103;51.340;12.326;2022-08-19T05:14:19;21.00;99.90
15997;DHT22;8103;51.340;12.326;2022-08-19T05:16:47;21.00;99.90
15997;DHT22;8103;51.340;12.326;2022-08-19T05:19:14;21.00;99.90
15997;DHT22;8103;51.340;12.326;2022-08-19T05:22:00;21.00;99.90
15997;DHT22;8103;51.340;12.326;2022-08-19T05:24:45;21.00;99.90
15997;DHT22;8103;51.340;12.326;2022-08-19T05:27:33;21.00;99.90
15997;DHT22;8103;51.340;12.326;2022-08-19T05:30:01;21.00;99.90
15997;DHT22;8103;51.340;12.326;2022-08-19T05:32:30;21.10;99.90
15997;DHT22;8103;51.340;12.326;2022-08-19T05:34:58;21.00;99.90
15997;DHT22;8103;51.340;12.326;2022-08-19T05:37:26;21.00;99.90
15997;DHT22;8103;51.340;12.326;2022-08-19T05:39:54;21.00;99.90
15997;DHT22;8103;51.340;12.326;2022-08-19T05:42:23;21.10;99.90
15997;DHT22;8103;51.340;12.326;2022-08-19T05:44:52;21.10;99.90
15997;DHT22;8103;51.340;12.326;2022-08-19T05:47:20;21.10;99.90
15997;DHT22;8103;51.340;12.326;2022-08-19T05:49:48;21.10;99.90
15997;DHT22;8103;51.340;12.326;2022-08-19T05:52:16;21.10;99.90
15997;DHT22;8103;51.340;12.326;2022-08-19T05:54:52;21.00;99.90
15997;DHT22;8103;51.340;12.326;2022-08-19T05:57:23;21.00;99.90
15997;DHT22;8103;51.340;12.326;2022-08-19T05:59:51;21.00;99.90
15997;DHT22;8103;51.340;12.326;2022-08-19T06:02:27;21.10;99.90
15997;DHT22;8103;51.340;12.326;2022-08-19T06:04:57;21.10;99.90
15997;DHT22;8103;51.340;12.326;2022-08-19T06:07:25;21.10;99.90
15997;DHT22;8103;51.340;12.326;2022-08-19T06:09:54;21.10;99.90
15997;DHT22;8103;51.340;12.326;2022-08-19T06:12:25;21.10;99.90
15997;DHT22;8103;51.340;12.326;2022-08-19T06:15:10;21.20;99.90
15997;DHT22;8103;51.340;12.326;2022-08-19T06:17:40;21.20;99.90
15997;DHT22;8103;51.340;12.326;2022-08-19T06:20:10;21.20;99.90
15997;DHT22;8103;51.340;12.326;2022-08-19T06:22:40;21.30;99.90
15997;DHT22;8103;51.340;12.326;2022-08-19T06:25:08;21.30;99.90
15997;DHT22;8103;51.340;12.326;2022-08-19T06:27:38;21.30;99.90
15997;DHT22;8103;51.340;12.326;2022-08-19T06:30:24;21.30;99.90
15997;DHT22;8103;51.340;12.326;2022-08-19T06:32:52;21.40;99.90
15997;DHT22;8103;51.340;12.326;2022-08-19T06:35:21;21.40;99.90
15997;DHT22;8103;51.340;12.326;2022-08-19T06:37:49;21.40;99.90
15997;DHT22;8103;51.340;12.326;2022-08-19T06:40:18;21.40;99.90
15997;DHT22;8103;51.340;12.326;2022-08-19T06:42:45;21.40;99.90
15997;DHT22;8103;51.340;12.326;2022-08-19T06:45:14;21.40;99.90
15997;DHT22;8103;51.340;12.326;2022-08-19T06:47:42;21.40;99.90
15997;DHT22;8103;51.340;12.326;2022-08-19T06:50:12;21.30;99.90
15997;DHT22;8103;51.340;12.326;2022-08-19T06:52:39;21.40;99.90
15997;DHT22;8103;51.340;12.326;2022-08-19T06:55:06;21.40;99.90
15997;DHT22;8103;51.340;12.326;2022-08-19T06:57:34;21.30;99.90
15997;DHT22;8103;51.340;12.326;2022-08-19T07:00:04;21.30;99.90
15997;DHT22;8103;51.340;12.326;2022-08-19T07:02:33;21.20;99.90
15997;DHT22;8103;51.340;12.326;2022-08-19T07:05:08;21.20;99.90
15997;DHT22;8103;51.340;12.326;2022-08-19T07:07:35;21.10;99.90
15997;DHT22;8103;51.340;12.326;2022-08-19T07:10:04;21.10;99.90
15997;DHT22;8103;51.340;12.326;2022-08-19T07:12:33;21.10;99.90
15997;DHT22;8103;51.340;12.326;2022-08-19T07:15:05;21.00;99.90
15997;DHT22;8103;51.340;12.326;2022-08-19T07:17:33;21.00;99.90
15997;DHT22;8103;51.340;12.326;2022-08-19T07:20:05;21.00;99.90
15997;DHT22;8103;51.340;12.326;2022-08-19T07:22:38;21.00;99.90
15997;DHT22;8103;51.340;12.326;2022-08-19T07:25:07;21.00;99.90
15997;DHT22;8103;51.340;12.326;2022-08-19T07:27:36;20.90;99.90
15997;DHT22;8103;51.340;12.326;2022-08-19T07:30:06;20.90;99.90
15997;DHT22;8103;51.340;12.326;2022-08-19T07:32:37;20.90;99.90
15997;DHT22;8103;51.340;12.326;2022-08-19T07:35:06;20.90;99.90
15997;DHT22;8103;51.340;12.326;2022-08-19T07:37:35;20.90;99.90
15997;DHT22;8103;51.340;12.326;2022-08-19T07:40:05;20.90;99.90
15997;DHT22;8103;51.340;12.326;2022-08-19T07:42:33;20.90;99.90
15997;DHT22;8103;51.340;12.326;2022-08-19T07:44:59;21.00;99.90
15997;DHT22;8103;51.340;12.326;2022-08-19T07:47:26;21.00;99.90
15997;DHT22;8103;51.340;12.326;2022-08-19T07:50:13;21.00;99.90
15997;DHT22;8103;51.340;12.326;2022-08-19T07:52:40;21.00;99.90
15997;DHT22;8103;51.340;12.326;2022-08-19T07:55:10;21.00;99.90
15997;DHT22;8103;51.340;12.326;2022-08-19T07:57:57;21.00;99.90
15997;DHT22;8103;51.340;12.326;2022-08-19T08:00:24;21.00;99.90
15997;DHT22;8103;51.340;12.326;2022-08-19T08:02:52;21.00;99.90
15997;DHT22;8103;51.340;12.326;2022-08-19T08:05:21;21.10;99.90
15997;DHT22;8103;51.340;12.326;2022-08-19T08:08:09;21.10;99.90
15997;DHT22;8103;51.340;12.326;2022-08-19T08:10:54;21.10;99.90
15997;DHT22;8103;51.340;12.326;2022-08-19T08:13:22;21.20;99.90
15997;DHT22;8103;51.340;12.326;2022-08-19T08:15:49;21.30;99.90
15997;DHT22;8103;51.340;12.326;2022-08-19T08:18:17;21.30;99.90
15997;DHT22;8103;51.340;12.326;2022-08-19T08:20:45;21.30;99.90
15997;DHT22;8103;51.340;12.326;2022-08-19T08:23:12;21.40;99.90
15997;DHT22;8103;51.340;12.326;2022-08-19T08:25:57;21.40;99.90
15997;DHT22;8103;51.340;12.326;2022-08-19T08:28:25;21.30;99.90
15997;DHT22;8103;51.340;12.326;2022-08-19T08:30:56;21.30;99.90
15997;DHT22;8103;51.340;12.326;2022-08-19T08:33:25;21.30;99.90
15997;DHT22;8103;51.340;12.326;2022-08-19T08:35:54;21.20;99.90
15997;DHT22;8103;51.340;12.326;2022-08-19T08:38:20;21.30;99.90
15997;DHT22;8103;51.340;12.326;2022-08-19T08:40:52;21.20;99.90
15997;DHT22;8103;51.340;12.326;2022-08-19T08:43:34;21.20;99.90
15997;DHT22;8103;51.340;12.326;2022-08-19T08:46:15;21.20;99.90
15997;DHT22;8103;51.340;12.326;2022-08-19T08:52:26;21.20;99.90
15997;DHT22;8103;51.340;12.326;2022-08-19T08:55:00;21.20;99.90
15997;DHT22;8103;51.340;12.326;2022-08-19T08:57:36;21.10;99.90
15997;DHT22;8103;51.340;12.326;2022-08-19T09:00:11;21.20;99.90
15997;DHT22;8103;51.340;12.326;2022-08-19T09:02:40;21.20;99.90
15997;DHT22;8103;51.340;12.326;2022-08-19T09:05:09;21.30;99.90
15997;DHT22;8103;51.340;12.326;2022-08-19T09:08:00;21.30;99.90
15997;DHT22;8103;51.340;12.326;2022-08-19T09:10:52;21.40;99.90
15997;DHT22;8103;51.340;12.326;2022-08-19T09:14:02;21.40;99.90
15997;DHT22;8103;51.340;12.326;2022-08-19T09:16:31;21.40;99.90
15997;DHT22;8103;51.340;12.326;2022-08-19T09:19:02;21.50;99.90
15997;DHT22;8103;51.340;12.326;2022-08-19T09:21:29;21.60;99.90
15997;DHT22;8103;51.340;12.326;2022-08-19T09:23:59;21.70;99.90
15997;DHT22;8103;51.340;12.326;2022-08-19T09:26:26;22.00;99.90
15997;DHT22;8103;51.340;12.326;2022-08-19T09:28:55;22.20;99.90
15997;DHT22;8103;51.340;12.326;2022-08-19T09:31:25;22.30;99.90
15997;DHT22;8103;51.340;12.326;2022-08-19T09:33:52;22.30;99.90
15997;DHT22;8103;51.340;12.326;2022-08-19T09:36:25;22.30;99.90
15997;DHT22;8103;51.340;12.326;2022-08-19T09:38:56;22.30;99.90
15997;DHT22;8103;51.340;12.326;2022-08-19T09:41:24;22.20;99.90
15997;DHT22;8103;51.340;12.326;2022-08-19T09:43:53;22.10;99.90
15997;DHT22;8103;51.340;12.326;2022-08-19T09:46:24;22.00;99.90
15997;DHT22;8103;51.340;12.326;2022-08-19T09:48:52;21.90;99.90
15997;DHT22;8103;51.340;12.326;2022-08-19T09:51:22;22.00;99.90
15997;DHT22;8103;51.340;12.326;2022-08-19T09:53:50;22.00;99.90
15997;DHT22;8103;51.340;12.326;2022-08-19T09:56:19;22.10;99.90
15997;DHT22;8103;51.340;12.326;2022-08-19T09:58:47;22.00;99.90
15997;DHT22;8103;51.340;12.326;2022-08-19T10:01:20;22.10;99.90
15997;DHT22;8103;51.340;12.326;2022-08-19T10:03:49;22.20;99.90
15997;DHT22;8103;51.340;12.326;2022-08-19T10:06:17;22.10;99.90
15997;DHT22;8103;51.340;12.326;2022-08-19T10:08:44;22.10;99.90
15997;DHT22;8103;51.340;12.326;2022-08-19T10:11:15;22.00;99.90
15997;DHT22;8103;51.340;12.326;2022-08-19T10:13:54;22.10;99.90
15997;DHT22;8103;51.340;12.326;2022-08-19T10:16:22;22.30;99.90
15997;DHT22;8103;51.340;12.326;2022-08-19T10:18:53;22.50;99.90
15997;DHT22;8103;51.340;12.326;2022-08-19T10:21:27;22.80;99.90
15997;DHT22;8103;51.340;12.326;2022-08-19T10:23:57;23.00;99.90
15997;DHT22;8103;51.340;12.326;2022-08-19T10:26:26;23.10;99.90
15997;DHT22;8103;51.340;12.326;2022-08-19T10:28:54;23.30;99.90
15997;DHT22;8103;51.340;12.326;2022-08-19T10:31:29;23.60;99.90
15997;DHT22;8103;51.340;12.326;2022-08-19T10:34:16;23.40;99.90
15997;DHT22;8103;51.340;12.326;2022-08-19T10:36:53;23.30;99.90
15997;DHT22;8103;51.340;12.326;2022-08-19T10:39:22;23.20;99.90
15997;DHT22;8103;51.340;12.326;2022-08-19T10:41:49;23.10;99.90
15997;DHT22;8103;51.340;12.326;2022-08-19T10:44:16;23.00;99.90
15997;DHT22;8103;51.340;12.326;2022-08-19T10:46:44;22.90;99.90
15997;DHT22;8103;51.340;12.326;2022-08-19T10:49:14;22.90;99.90
15997;DHT22;8103;51.340;12.326;2022-08-19T10:51:41;22.70;99.90
15997;DHT22;8103;51.340;12.326;2022-08-19T10:54:27;22.60;99.90
15997;DHT22;8103;51.340;12.326;2022-08-19T10:57:15;22.50;99.90
15997;DHT22;8103;51.340;12.326;2022-08-19T10:59:42;22.50;99.90
15997;DHT22;8103;51.340;12.326;2022-08-19T11:02:10;22.60;99.90
15997;DHT22;8103;51.340;12.326;2022-08-19T11:04:39;22.50;99.90
15997;DHT22;8103;51.340;12.326;2022-08-19T11:07:07;22.50;99.90
15997;DHT22;8103;51.340;12.326;2022-08-19T11:09:40;22.70;99.90
15997;DHT22;8103;51.340;12.326;2022-08-19T11:12:07;22.80;99.90
15997;DHT22;8103;51.340;12.326;2022-08-19T11:14:34;23.00;99.90
15997;DHT22;8103;51.340;12.326;2022-08-19T11:17:03;23.10;99.90
15997;DHT22;8103;51.340;12.326;2022-08-19T11:19:31;23.20;99.90
15997;DHT22;8103;51.340;12.326;2022-08-19T11:21:58;23.40;99.90
15997;DHT22;8103;51.340;12.326;2022-08-19T11:24:28;23.50;99.90
15997;DHT22;8103;51.340;12.326;2022-08-19T11:27:01;23.50;99.90
15997;DHT22;8103;51.340;12.326;2022-08-19T11:29:29;23.60;99.90
15997;DHT22;8103;51.340;12.326;2022-08-19T11:31:55;23.60;99.90
15997;DHT22;8103;51.340;12.326;2022-08-19T11:34:24;23.80;99.90
15997;DHT22;8103;51.340;12.326;2022-08-19T11:36:52;24.20;99.90
15997;DHT22;8103;51.340;12.326;2022-08-19T11:39:21;24.50;99.90
15997;DHT22;8103;51.340;12.326;2022-08-19T11:41:49;24.70;99.90
15997;DHT22;8103;51.340;12.326;2022-08-19T11:44:16;24.90;99.90
15997;DHT22;8103;51.340;12.326;2022-08-19T11:46:43;25.00;99.90
15997;DHT22;8103;51.340;12.326;2022-08-19T11:49:14;25.00;99.90
15997;DHT22;8103;51.340;12.326;2022-08-19T11:51:42;25.10;99.90
15997;DHT22;8103;51.340;12.326;2022-08-19T11:54:09;25.20;99.90
15997;DHT22;8103;51.340;12.326;2022-08-19T11:56:37;25.20;99.90
15997;DHT22;8103;51.340;12.326;2022-08-19T11:59:04;25.10;99.90
15997;DHT22;8103;51.340;12.326;2022-08-19T12:01:31;24.90;99.90
15997;DHT22;8103;51.340;12.326;2022-08-19T12:03:58;24.70;99.90
15997;DHT22;8103;51.340;12.326;2022-08-19T12:06:29;24.50;99.90
15997;DHT22;8103;51.340;12.326;2022-08-19T12:08:58;24.30;99.90
15997;DHT22;8103;51.340;12.326;2022-08-19T12:11:25;24.30;99.90
15997;DHT22;8103;51.340;12.326;2022-08-19T12:13:53;24.20;99.90
15997;DHT22;8103;51.340;12.326;2022-08-19T12:16:23;24.50;99.90
15997;DHT22;8103;51.340;12.326;2022-08-19T12:18:50;24.80;99.90
15997;DHT22;8103;51.340;12.326;2022-08-19T12:21:20;25.60;99.90
15997;DHT22;8103;51.340;12.326;2022-08-19T12:23:49;27.30;99.90
15997;DHT22;8103;51.340;12.326;2022-08-19T12:26:21;29.60;93.20
15997;DHT22;8103;51.340;12.326;2022-08-19T12:28:49;31.70;83.00
15997;DHT22;8103;51.340;12.326;2022-08-19T12:31:16;33.80;63.20
15997;DHT22;8103;51.340;12.326;2022-08-19T12:33:43;35.60;56.20
15997;DHT22;8103;51.340;12.326;2022-08-19T12:36:12;36.40;51.40
15997;DHT22;8103;51.340;12.326;2022-08-19T12:38:40;36.10;50.00
15997;DHT22;8103;51.340;12.326;2022-08-19T12:41:13;35.10;50.90
15997;DHT22;8103;51.340;12.326;2022-08-19T12:43:40;33.80;53.10
15997;DHT22;8103;51.340;12.326;2022-08-19T12:46:08;32.50;55.50
15997;DHT22;8103;51.340;12.326;2022-08-19T12:48:37;32.20;57.80
15997;DHT22;8103;51.340;12.326;2022-08-19T12:51:08;33.20;56.60
15997;DHT22;8103;51.340;12.326;2022-08-19T12:53:36;34.30;53.60
15997;DHT22;8103;51.340;12.326;2022-08-19T12:56:06;35.60;51.30
15997;DHT22;8103;51.340;12.326;2022-08-19T12:58:36;35.90;48.90
15997;DHT22;8103;51.340;12.326;2022-08-19T13:01:12;35.30;49.70
15997;DHT22;8103;51.340;12.326;2022-08-19T13:03:40;34.60;50.90
15997;DHT22;8103;51.340;12.326;2022-08-19T13:06:08;34.20;51.80
15997;DHT22;8103;51.340;12.326;2022-08-19T13:08:38;34.00;51.80
15997;DHT22;8103;51.340;12.326;2022-08-19T13:11:16;34.00;52.20
15997;DHT22;8103;51.340;12.326;2022-08-19T13:13:46;34.00;52.20
15997;DHT22;8103;51.340;12.326;2022-08-19T13:16:14;33.50;52.10
15997;DHT22;8103;51.340;12.326;2022-08-19T13:18:42;32.60;54.00
15997;DHT22;8103;51.340;12.326;2022-08-19T13:21:13;31.90;55.90
15997;DHT22;8103;51.340;12.326;2022-08-19T13:23:40;31.00;57.70
15997;DHT22;8103;51.340;12.326;2022-08-19T13:26:08;30.00;60.10
15997;DHT22;8103;51.340;12.326;2022-08-19T13:28:37;29.20;63.40
15997;DHT22;8103;51.340;12.326;2022-08-19T13:31:24;28.50;65.80
15997;DHT22;8103;51.340;12.326;2022-08-19T13:34:10;28.00;68.20
15997;DHT22;8103;51.340;12.326;2022-08-19T13:36:38;27.80;69.90
15997;DHT22;8103;51.340;12.326;2022-08-19T13:39:07;27.50;71.20
15997;DHT22;8103;51.340;12.326;2022-08-19T13:41:36;27.30;72.70
15997;DHT22;8103;51.340;12.326;2022-08-19T13:44:03;27.00;73.80
15997;DHT22;8103;51.340;12.326;2022-08-19T13:46:30;26.70;75.10
15997;DHT22;8103;51.340;12.326;2022-08-19T13:48:57;26.30;77.00
15997;DHT22;8103;51.340;12.326;2022-08-19T13:51:24;26.00;79.40
15997;DHT22;8103;51.340;12.326;2022-08-19T13:53:51;25.80;81.30
15997;DHT22;8103;51.340;12.326;2022-08-19T13:56:19;25.50;83.80
15997;DHT22;8103;51.340;12.326;2022-08-19T13:58:52;25.30;84.10
15997;DHT22;8103;51.340;12.326;2022-08-19T14:01:21;25.20;85.00
15997;DHT22;8103;51.340;12.326;2022-08-19T14:03:49;25.10;86.10
15997;DHT22;8103;51.340;12.326;2022-08-19T14:06:16;25.00;87.80
15997;DHT22;8103;51.340;12.326;2022-08-19T14:08:43;24.80;89.30
15997;DHT22;8103;51.340;12.326;2022-08-19T14:11:11;24.60;90.70
15997;DHT22;8103;51.340;12.326;2022-08-19T14:13:38;24.50;91.60
15997;DHT22;8103;51.340;12.326;2022-08-19T14:16:10;24.40;92.40
15997;DHT22;8103;51.340;12.326;2022-08-19T14:18:37;24.40;93.10
15997;DHT22;8103;51.340;12.326;2022-08-19T14:21:06;24.30;93.60
15997;DHT22;8103;51.340;12.326;2022-08-19T14:23:33;24.20;95.50
15997;DHT22;8103;51.340;12.326;2022-08-19T14:26:19;24.20;99.00
15997;DHT22;8103;51.340;12.326;2022-08-19T14:28:47;24.20;99.10
15997;DHT22;8103;51.340;12.326;2022-08-19T14:31:16;24.20;99.10
15997;DHT22;8103;51.340;12.326;2022-08-19T14:33:47;24.20;99.20
15997;DHT22;8103;51.340;12.326;2022-08-19T14:36:14;24.20;99.10
15997;DHT22;8103;51.340;12.326;2022-08-19T14:38:41;24.20;99.20
15997;DHT22;8103;51.340;12.326;2022-08-19T14:41:22;24.20;99.30
15997;DHT22;8103;51.340;12.326;2022-08-19T14:43:51;24.20;99.50
15997;DHT22;8103;51.340;12.326;2022-08-19T14:46:22;24.20;99.60
15997;DHT22;8103;51.340;12.326;2022-08-19T14:48:49;24.20;99.50
15997;DHT22;8103;51.340;12.326;2022-08-19T14:51:18;24.40;99.50
15997;DHT22;8103;51.340;12.326;2022-08-19T14:53:45;24.40;99.10
15997;DHT22;8103;51.340;12.326;2022-08-19T14:56:17;24.40;99.20
15997;DHT22;8103;51.340;12.326;2022-08-19T14:58:45;24.40;99.10
15997;DHT22;8103;51.340;12.326;2022-08-19T15:01:12;24.40;99.30
15997;DHT22;8103;51.340;12.326;2022-08-19T15:03:40;24.40;99.30
15997;DHT22;8103;51.340;12.326;2022-08-19T15:06:08;24.40;99.40
15997;DHT22;8103;51.340;12.326;2022-08-19T15:08:39;24.40;99.20
15997;DHT22;8103;51.340;12.326;2022-08-19T15:11:09;24.40;99.00
15997;DHT22;8103;51.340;12.326;2022-08-19T15:13:36;24.40;98.40
15997;DHT22;8103;51.340;12.326;2022-08-19T15:16:03;24.30;98.20
15997;DHT22;8103;51.340;12.326;2022-08-19T15:18:31;24.30;98.10
15997;DHT22;8103;51.340;12.326;2022-08-19T15:20:59;24.20;97.70
15997;DHT22;8103;51.340;12.326;2022-08-19T15:23:26;24.10;97.80
15997;DHT22;8103;51.340;12.326;2022-08-19T15:25:54;24.00;97.90
15997;DHT22;8103;51.340;12.326;2022-08-19T15:28:22;23.90;97.90
15997;DHT22;8103;51.340;12.326;2022-08-19T15:30:49;23.90;97.90
15997;DHT22;8103;51.340;12.326;2022-08-19T15:33:17;23.80;98.10
15997;DHT22;8103;51.340;12.326;2022-08-19T15:35:47;23.80;98.20
15997;DHT22;8103;51.340;12.326;2022-08-19T15:38:13;23.70;98.40
15997;DHT22;8103;51.340;12.326;2022-08-19T15:40:41;23.70;98.50
15997;DHT22;8103;51.340;12.326;2022-08-19T15:43:08;23.80;98.50
15997;DHT22;8103;51.340;12.326;2022-08-19T15:45:34;23.90;98.20
15997;DHT22;8103;51.340;12.326;2022-08-19T15:48:02;23.90;98.10
15997;DHT22;8103;51.340;12.326;2022-08-19T15:50:30;23.90;97.90
15997;DHT22;8103;51.340;12.326;2022-08-19T15:53:05;23.90;98.00